Pacific Aria — 2IYN3 — position and weather

sailwx.info

Track history (hours):
 
Tides and Currents Weather Stations Pressure Air Temp Water Temp Dewpoint Dewpoint Depression Visibility Wind Speed Wind Dir Waves Ship Positions

Pacific Aria

Last reported at 2018-May-23 20:00 UTC. Time now 2018-May-24 12:11 UTC.
Position S 20°42' E 152°54'.

Length 220 m; draft 7.7 m.

Type: Passenger vessel. MMSI: 235113823.

Wind from 090 at 30 knots

Barometer 1019.4 mb
Air temperature 23.0 ° C
Visibility: greater than 10.8 NM
Dewpoint 18.3 ° C
Water temperature 26.0 ° C

Date/timePositionNaut miles runAvg speedWind from/ knotsBaromVisibWave heightAir tempDewpointWater temp
2018-May-23 20:00S 20°42' E 152°54'   090 / 301019.410.8 23.018.326.0
2018-May-18 12:00S 25°48' E 153°24'5616.9 100 / 101022.910.8 24.022.528.0
2018-May-18 08:39S 26°43' E 153°11'412.0
2018-May-18 08:18S 26°47' E 153°11'412.4
2018-May-18 08:00S 26°51' E 153°09'816.4
2018-May-18 07:30S 26°58' E 153°14'815.7
2018-May-18 07:00S 27°04' E 153°18'816.1
2018-May-18 06:30S 27°12' E 153°20'613.0
2018-May-18 06:00S 27°17' E 153°15'612.6
2018-May-18 05:30S 27°21' E 153°11'4 8.5
2018-May-18 05:00S 27°25' E 153°08'4 7.2
2018-May-18 04:29S 27°27' E 153°04'0 0.1
2018-May-17 21:20S 27°26' E 153°04'2 5.4
2018-May-17 20:58S 27°27' E 153°06'3 6.6
2018-May-17 20:29S 27°24' E 153°09'4 8.1
2018-May-17 20:00S 27°21' E 153°11'714.0
2018-May-17 19:30S 27°16' E 153°17'714.7
2018-May-17 19:00S 27°10' E 153°21'714.7
2018-May-17 18:30S 27°03' E 153°18'714.3
2018-May-17 18:00S 26°57' E 153°13'715.0
2018-May-17 17:30S 26°51' E 153°09'713.7
2018-May-17 17:00S 26°44' E 153°11'  
Track history (hours):
 
Tides and Currents Weather Stations Pressure Air Temp Water Temp Dewpoint Dewpoint Depression Visibility Wind Speed Wind Dir Waves Ship Positions

Pacific Aria

Last reported at 2018-May-23 20:00 UTC. Time now 2018-May-24 12:11 UTC.
Position S 20°42' E 152°54'.

Length 220 m; draft 7.7 m.

Type: Passenger vessel. MMSI: 235113823.

Wind from 090 at 30 knots

Barometer 1019.4 mb
Air temperature 23.0 ° C
Visibility: greater than 10.8 NM
Dewpoint 18.3 ° C
Water temperature 26.0 ° C

Date/timePositionNaut miles runAvg speedWind from/ knotsBaromVisibWave heightAir tempDewpointWater temp
2018-May-23 20:00S 20°42' E 152°54'   090 / 301019.410.8 23.018.326.0
2018-May-18 12:00S 25°48' E 153°24'5616.9 100 / 101022.910.8 24.022.528.0
2018-May-18 08:39S 26°43' E 153°11'412.0
2018-May-18 08:18S 26°47' E 153°11'412.4
2018-May-18 08:00S 26°51' E 153°09'816.4
2018-May-18 07:30S 26°58' E 153°14'815.7
2018-May-18 07:00S 27°04' E 153°18'816.1
2018-May-18 06:30S 27°12' E 153°20'613.0
2018-May-18 06:00S 27°17' E 153°15'612.6
2018-May-18 05:30S 27°21' E 153°11'4 8.5
2018-May-18 05:00S 27°25' E 153°08'4 7.2
2018-May-18 04:29S 27°27' E 153°04'0 0.1
2018-May-17 21:20S 27°26' E 153°04'2 5.4
2018-May-17 20:58S 27°27' E 153°06'3 6.6
2018-May-17 20:29S 27°24' E 153°09'4 8.1
2018-May-17 20:00S 27°21' E 153°11'714.0
2018-May-17 19:30S 27°16' E 153°17'714.7
2018-May-17 19:00S 27°10' E 153°21'714.7
2018-May-17 18:30S 27°03' E 153°18'714.3
2018-May-17 18:00S 26°57' E 153°13'715.0
2018-May-17 17:30S 26°51' E 153°09'713.7
2018-May-17 17:00S 26°44' E 153°11'  

Dump ship's entire track history